Terminal Aerodrome Forecast
Issued by NWS Billings, MT

Current Version | Previous Version | Text Only | Print | Product List | Glossary On
Versions: 1 2 3 4 5 6 7 8 9 10 11 12 13 14 15 16 17 18 19 20 21 22 23 24 25 26
000
FTUS45 KBYZ 212340
TAFMLS
TAF
KMLS 212340Z 2200/2224 11010KT P6SM -TSRA BKN050CB
      TEMPO 2200/2201 VRB20G40KT
     FM220100 27012KT P6SM BKN100
     FM221500 32013KT P6SM VCSH BKN025
     FM221800 04010KT P6SM VCSH OVC025=

USA.gov is the U.S. government's official web portal to all federal, state and local government web resources and services.